Weather Data

Pearl Creek Farm: 8878 N Farm Road 75, Walnut Grove MO 65770

<== Previous Day (Friday 29 Jun 2018) | Next Day (Sunday 01 Jul 2018) ==>

Summary Precipitation Data For Saturday 30 June 2018

ElementValueUnits
Precipitation0"
Notes(none)
SourcePearl Creek Farm

Summary Temperature Data For Saturday 30 June 2018

ElementValueUnits
High Temperature94 oF
Low Temperature77 oF
Average Temperature85 oF
High Humidity85 %
Low Humidity46 %
Average Humidity64 %
SourceSpringfield-Branson National Airport (SGF)

Detail Temperature Data For Saturday 30 June 2018

Date / TimeTemp (F)RH (%)Dew Pt (F)Report Date / TimeSource
2018-06-30 21:52:00 80 69 69.0 2019-02-02 11:24:24.260017 Springfield-Branson National Airport (SGF)
2018-06-30 00:52:00 80 76 72.0 2019-02-02 11:24:24.260017 Springfield-Branson National Airport (SGF)
2018-06-30 01:52:00 79 79 72.0 2019-02-02 11:24:24.260017 Springfield-Branson National Airport (SGF)
2018-06-30 02:52:00 78 85 73.0 2019-02-02 11:24:24.260017 Springfield-Branson National Airport (SGF)
2018-06-30 03:52:00 77 85 72.0 2019-02-02 11:24:24.260017 Springfield-Branson National Airport (SGF)
2018-06-30 04:52:00 77 85 72.0 2019-02-02 11:24:24.260017 Springfield-Branson National Airport (SGF)
2018-06-30 05:52:00 78 82 72.0 2019-02-02 11:24:24.260017 Springfield-Branson National Airport (SGF)
2018-06-30 06:52:00 80 76 72.0 2019-02-02 11:24:24.260017 Springfield-Branson National Airport (SGF)
2018-06-30 07:52:00 83 70 72.0 2019-02-02 11:24:24.260017 Springfield-Branson National Airport (SGF)
2018-06-30 08:52:00 85 65 72.0 2019-02-02 11:24:24.260017 Springfield-Branson National Airport (SGF)
2018-06-30 09:52:00 88 61 73.0 2019-02-02 11:24:24.260017 Springfield-Branson National Airport (SGF)
2018-06-30 10:52:00 90 56 72.0 2019-02-02 11:24:24.260017 Springfield-Branson National Airport (SGF)
2018-06-30 11:52:00 91 56 73.0 2019-02-02 11:24:24.260017 Springfield-Branson National Airport (SGF)
2018-06-30 12:52:00 91 52 71.0 2019-02-02 11:24:24.260017 Springfield-Branson National Airport (SGF)
2018-06-30 13:52:00 93 49 71.0 2019-02-02 11:24:24.260017 Springfield-Branson National Airport (SGF)
2018-06-30 14:52:00 94 46 70.0 2019-02-02 11:24:24.260017 Springfield-Branson National Airport (SGF)
2018-06-30 15:52:00 93 49 71.0 2019-02-02 11:24:24.260017 Springfield-Branson National Airport (SGF)
2018-06-30 16:52:00 94 48 71.0 2019-02-02 11:24:24.260017 Springfield-Branson National Airport (SGF)
2018-06-30 17:52:00 92 49 70.0 2019-02-02 11:24:24.260017 Springfield-Branson National Airport (SGF)
2018-06-30 18:52:00 90 52 70.0 2019-02-02 11:24:24.260017 Springfield-Branson National Airport (SGF)
2018-06-30 19:52:00 87 53 68.0 2019-02-02 11:24:24.260017 Springfield-Branson National Airport (SGF)
2018-06-30 20:52:00 83 63 69.0 2019-02-02 11:24:24.260017 Springfield-Branson National Airport (SGF)
2018-06-30 22:52:00 81 65 68.0 2019-02-02 11:24:24.260017 Springfield-Branson National Airport (SGF)
2018-06-30 23:52:00 79 69 68.0 2019-02-02 11:24:24.260017 Springfield-Branson National Airport (SGF)

A total of 24 rows are displayed.